Sheridan Lake, Colorado
Current Conditions -  °F | °C
As of 1:53 PM on Monday 24 Nov 2014 (Local Time) from KLAA Reporting Station
Broken Clouds Broken Clouds  
Wind Chill: 47°   Ceiling: 9000
Heat Index: 49°   Visibility: 10mi
Dew Point: 13°   Wind: 5mph
Humidity: 24%   Direction: 330°NNW
Pressure: 29.95"   Gusts: NA
Location:  38.47°N, 102.29°W
Report Text: KLAA 242053Z AUTO 33004KT 10SM BKN090 BKN110 09/M11 A2995 RMK AO2 SLP146 T00941106 55002
Loading
Personal Weather Stations






























Interactive Weather Map New forecast layout! Learn more

10-Day Weather Forecast

Advertisements
Track Severe Weather on mobile